Time;durP1;ratioP1;P1;durP2;ratioP2;P2;SDS_P1;SDS_P2;PMS_P1;PMS_P2;Temp;Humidity;BMP_temperature;BMP_pressure;BME280_temperature;BME280_humidity;BME280_pressure;Samples;Min_cycle;Max_cycle;Signal;HPM_P1;HPM_P2
2022/04/16 02:15:56;;;;;;;0.80;0.70;;;;;;;0.67;100.00;103445.00;5147485;23;20076;-84
2022/04/16 02:36:27;;;;;;;1.35;1.00;;;;;;;0.63;100.00;103444.28;5540613;23;20082;-82
2022/04/16 02:38:54;;;;;;;2.70;0.93;;;;;;;0.44;100.00;103407.16;4959847;28;20071;-82
2022/04/16 02:41:22;;;;;;;4.30;1.05;;;;;;;0.49;100.00;103428.13;4928439;28;20032;-81
2022/04/16 02:43:48;;;;;;;1.52;0.80;;;;;;;0.50;100.00;103429.88;4941459;28;20059;-82
2022/04/16 02:48:57;;;;;;;2.75;0.90;;;;;;;0.49;100.00;103441.38;4940696;28;20038;-83
2022/04/16 02:51:24;;;;;;;1.20;0.85;;;;;;;0.54;100.00;103454.44;4943107;28;20020;-83
2022/04/16 02:53:49;;;;;;;1.27;0.70;;;;;;;0.49;100.00;103449.31;4978627;28;20011;-81
2022/04/16 02:56:15;;;;;;;1.02;0.80;;;;;;;0.41;100.00;103460.25;4978180;28;20035;-83
2022/04/16 02:58:41;;;;;;;2.85;0.90;;;;;;;0.36;100.00;103454.28;4965890;28;20012;-82
2022/04/16 03:01:06;;;;;;;2.40;1.00;;;;;;;0.20;100.00;103434.72;4960092;28;20016;-82
2022/04/16 03:11:17;;;;;;;3.92;1.27;;;;;;;0.29;100.00;103457.28;5460542;23;20039;-83
2022/04/16 03:24:03;;;;;;;2.42;1.13;;;;;;;0.06;100.00;103442.38;5913144;23;20056;-83
2022/04/16 03:26:29;;;;;;;4.30;0.93;;;;;;;0.22;100.00;103467.28;4977744;28;20067;-83
2022/04/16 03:28:54;;;;;;;3.63;1.15;;;;;;;0.23;100.00;103466.34;4982169;28;20051;-83
2022/04/16 03:31:19;;;;;;;1.20;0.98;;;;;;;0.17;100.00;103453.41;4982217;28;20019;-82
2022/04/16 03:33:44;;;;;;;2.53;1.08;;;;;;;0.21;100.00;103470.88;4965539;28;20019;-82
2022/04/16 03:59:59;;;;;;;1.88;0.90;;;;;;;0.31;100.00;103501.31;4943397;29;20034;-84
2022/04/16 04:05:00;;;;;;;1.45;0.98;;;;;;;0.31;100.00;103482.78;5466970;23;20036;-84
2022/04/16 04:07:25;;;;;;;2.08;1.02;;;;;;;0.26;100.00;103476.81;4961834;28;20050;-83
2022/04/16 05:10:43;;;;;;;2.95;1.17;;;;;;;8.14;97.25;103493.78;5249285;23;20446;-81
2022/04/16 05:20:49;;;;;;;2.08;1.20;;;;;;;8.32;95.16;103495.06;4955833;28;20079;-83
2022/04/16 05:23:14;;;;;;;2.45;1.20;;;;;;;8.50;94.61;103503.53;4959941;28;20024;-83
2022/04/16 05:25:40;;;;;;;1.83;1.23;;;;;;;8.66;94.43;103497.84;4946280;28;20034;-83
2022/04/16 05:28:05;;;;;;;2.47;1.40;;;;;;;9.09;92.81;103507.84;4924814;29;20016;-83
2022/04/16 05:33:16;;;;;;;2.92;1.42;;;;;;;6.42;97.72;103254.84;5952939;23;20006;-83
2022/04/16 05:40:51;;;;;;;2.83;1.35;;;;;;;5.71;100.00;103519.94;5907042;23;20015;-79
2022/04/16 05:48:28;;;;;;;2.00;1.00;;;;;;;5.48;100.00;103527.63;5162543;23;20035;-83
2022/04/16 05:50:53;;;;;;;8.95;2.03;;;;;;;5.33;100.00;103505.47;4959193;28;20050;-83
2022/04/16 05:53:19;;;;;;;1.85;1.10;;;;;;;5.56;100.00;103536.03;4968925;28;20031;-83
2022/04/16 05:58:19;;;;;;;2.50;1.27;;;;;;;5.36;100.00;103531.06;5090914;23;20056;-82
2022/04/16 06:00:45;;;;;;;2.17;1.25;;;;;;;5.42;100.00;103536.03;4956991;28;20368;-80
2022/04/16 06:03:11;;;;;;;2.25;1.20;;;;;;;5.47;100.00;103525.94;4946322;28;20042;-84
2022/04/16 06:34:03;;;;;;;2.28;1.02;;;;;;;5.09;100.00;103294.34;5151652;23;20087;-84
2022/04/16 07:35:58;;;;;;;1.25;1.10;;;;;;;7.42;100.00;103390.22;5298271;23;20066;-83
2022/04/16 07:38:23;;;;;;;2.67;1.17;;;;;;;8.39;100.00;103570.59;4942508;28;20032;-83
2022/04/16 07:40:49;;;;;;;1.88;1.25;;;;;;;7.40;100.00;103435.00;4941685;28;20008;-84
2022/04/16 07:43:15;;;;;;;3.35;1.20;;;;;;;6.95;100.00;103370.47;4942187;29;20048;-83
2022/04/16 07:45:41;;;;;;;1.77;1.10;;;;;;;7.66;100.00;103483.13;4941692;29;20358;-83
2022/04/16 07:48:08;;;;;;;2.80;1.42;;;;;;;8.36;100.00;103570.81;4940913;29;20028;-83
2022/04/16 07:50:33;;;;;;;1.90;1.20;;;;;;;7.43;100.00;103423.22;4940286;29;20040;-83
2022/04/16 07:52:59;;;;;;;6.65;1.15;;;;;;;8.43;100.00;103580.97;4941136;29;20060;-84
2022/04/16 07:58:00;;;;;;;2.83;1.10;;;;;;;8.21;100.00;103565.66;5764663;23;19906;-85
2022/04/16 08:03:01;;;;;;;2.28;1.50;;;;;;;7.84;100.00;103481.72;5045243;23;20084;-83
2022/04/16 12:17:05;;;;;;;6.00;2.70;;;;;;;8.32;100.00;103312.66;5587828;23;20068;-80
2022/04/16 12:35:02;;;;;;;5.10;1.10;;;;;;;8.27;100.00;103288.00;5727230;23;20067;-80
2022/04/16 12:37:28;;;;;;;4.43;0.90;;;;;;;9.85;100.00;103530.31;5032563;23;20048;-82
2022/04/16 12:39:53;;;;;;;1.90;1.00;;;;;;;9.84;100.00;103536.69;4905094;29;20112;-81
2022/04/16 12:42:19;;;;;;;3.33;1.27;;;;;;;8.59;100.00;103333.75;5065060;23;20042;-83
2022/04/16 12:48:08;;;;;;;;;;;;;;;9.80;100.00;103533.41;5938864;23;20032;31
2022/04/16 12:58:20;;;;;;;2.50;1.02;;;;;;;8.91;100.00;103371.41;5181244;23;19907;-82
2022/04/16 13:00:46;;;;;;;2.40;1.10;;;;;;;8.52;100.00;103318.28;4898834;29;20036;-85
2022/04/16 13:08:49;;;;;;;3.55;0.98;;;;;;;8.14;100.00;103274.72;5746606;23;20060;-81
2022/04/16 13:11:17;;;;;;;2.85;0.90;;;;;;;8.83;100.00;103416.81;4917676;29;20096;-80
2022/04/16 13:13:45;;;;;;;1.55;0.85;;;;;;;7.88;100.00;103267.91;4911112;29;20033;-83
2022/04/16 13:21:21;;;;;;;1.80;0.70;;;;;;;8.05;100.00;103280.00;5308778;23;19935;-83
2022/04/16 13:23:46;;;;;;;4.47;1.38;;;;;;;8.71;100.00;103364.13;5197450;23;20341;-83
2022/04/16 13:31:56;;;;;;;4.80;2.47;;;;;;;9.76;100.00;103507.72;5981721;23;20272;31
2022/04/16 14:22:21;;;;;;;9.20;4.07;;;;;;;8.18;100.00;103311.06;3180434;23;20326;-78
2022/04/16 14:24:46;;;;;;;6.00;3.95;;;;;;;9.03;100.00;103433.16;4921013;29;20029;-83
2022/04/16 14:27:13;;;;;;;11.75;4.00;;;;;;;8.88;100.00;103416.47;4904063;29;20076;-83
2022/04/16 14:29:39;;;;;;;10.10;4.75;;;;;;;7.42;100.00;103193.81;5074857;23;20141;-85
2022/04/16 14:32:05;;;;;;;5.57;3.90;;;;;;;7.90;100.00;103258.75;5182448;23;20048;-86
2022/04/16 14:34:31;;;;;;;8.27;4.20;;;;;;;9.06;100.00;103432.91;4922007;29;20089;-84
2022/04/16 14:36:58;;;;;;;7.63;4.10;;;;;;;7.67;100.00;103244.50;4927002;29;20059;-84
2022/04/16 14:39:23;;;;;;;7.22;3.85;;;;;;;8.98;100.00;103435.38;4927506;29;20047;-82
2022/04/16 14:49:34;;;;;;;8.20;4.50;;;;;;;8.74;100.00;103432.78;5153226;23;20072;-79
2022/04/16 14:52:00;;;;;;;6.13;4.32;;;;;;;8.38;100.00;103362.31;4898972;29;20024;-81
2022/04/16 14:54:26;;;;;;;8.82;4.10;;;;;;;8.64;100.00;103416.56;4902695;29;20036;-80
2022/04/16 14:56:51;;;;;;;6.85;3.88;;;;;;;8.69;100.00;103434.03;4898510;29;20031;-79
2022/04/16 14:59:17;;;;;;;9.20;4.10;;;;;;;8.72;100.00;103429.41;4901079;29;20037;-80
2022/04/16 15:01:42;;;;;;;6.07;3.78;;;;;;;8.68;100.00;103413.53;4899668;29;20029;-80
2022/04/16 15:04:07;;;;;;;6.57;4.18;;;;;;;8.54;100.00;103396.81;4903235;29;20542;-79
2022/04/16 15:06:33;;;;;;;6.78;4.30;;;;;;;8.77;100.00;103422.66;4900764;29;20028;-78
2022/04/16 15:08:58;;;;;;;6.00;4.05;;;;;;;8.74;100.00;103428.31;4884508;29;20115;-79
2022/04/16 15:11:23;;;;;;;7.82;4.38;;;;;;;8.75;100.00;103423.78;4897562;29;20081;-79
2022/04/16 15:13:49;;;;;;;7.50;4.40;;;;;;;8.86;100.00;103427.31;4901172;29;20168;-78
2022/04/16 15:16:14;;;;;;;7.22;4.20;;;;;;;8.80;100.00;103427.78;4887341;29;20423;-78
2022/04/16 15:18:39;;;;;;;7.15;4.03;;;;;;;8.83;100.00;103424.00;4901105;29;20543;-79
2022/04/16 15:21:05;;;;;;;13.65;3.80;;;;;;;8.91;100.00;103419.75;4905870;29;20033;-78
2022/04/16 15:23:33;;;;;;;7.55;4.53;;;;;;;8.92;100.00;103426.81;4906859;29;20032;-78
2022/04/16 15:25:59;;;;;;;9.30;3.83;;;;;;;9.04;100.00;103418.72;4899980;29;20451;-78
2022/04/16 15:28:24;;;;;;;5.47;3.67;;;;;;;9.01;100.00;103408.25;4900699;29;20127;-80
2022/04/16 15:30:50;;;;;;;5.60;3.40;;;;;;;9.10;100.00;103407.50;4902812;29;20044;-80
2022/04/16 15:33:15;;;;;;;7.07;3.70;;;;;;;9.16;100.00;103410.53;4901884;29;20056;-80
2022/04/16 15:35:42;;;;;;;6.78;3.38;;;;;;;9.21;100.00;103403.94;4882710;29;20040;-80
2022/04/16 15:38:07;;;;;;;5.70;2.97;;;;;;;9.02;100.00;103378.59;4893842;29;20530;-80
2022/04/16 15:40:33;;;;;;;3.40;2.80;;;;;;;9.00;100.00;103368.94;4903256;29;20135;-79
2022/04/16 15:43:00;;;;;;;4.53;2.80;;;;;;;9.17;100.00;103390.75;4908921;29;20375;-80
2022/04/16 15:45:26;;;;;;;3.08;2.47;;;;;;;9.11;100.00;103363.56;4887107;29;20378;-79
2022/04/16 15:47:51;;;;;;;4.18;3.10;;;;;;;9.25;100.00;103370.47;4899706;29;20132;-79
2022/04/16 15:50:17;;;;;;;4.65;3.10;;;;;;;9.49;100.00;103381.00;4898777;29;20370;-79
2022/04/16 15:52:42;;;;;;;4.35;2.70;;;;;;;9.42;100.00;103380.66;4913591;29;20450;-79
2022/04/16 15:55:08;;;;;;;3.63;3.13;;;;;;;9.42;100.00;103380.66;4918187;29;20466;-80
2022/04/16 15:57:34;;;;;;;5.35;3.38;;;;;;;9.29;100.00;103378.13;4905743;29;20348;-80
2022/04/16 15:59:59;;;;;;;5.20;3.40;;;;;;;9.23;100.00;103383.16;4905504;29;20085;-83
2022/04/16 16:02:25;;;;;;;6.20;3.47;;;;;;;9.05;100.00;103343.41;4905006;29;20039;-80
2022/04/16 16:04:57;;;;;;;3.92;3.42;;;;;;;9.13;100.00;103370.47;4905116;29;20040;-80
2022/04/16 16:07:26;;;;;;;5.07;3.22;;;;;;;9.13;100.00;103370.47;4895024;29;20024;-79
2022/04/16 16:09:57;;;;;;;4.10;3.42;;;;;;;8.92;100.00;103330.16;4901023;29;20024;-80
2022/04/16 16:12:23;;;;;;;6.00;3.10;;;;;;;9.20;100.00;103372.66;4885679;29;20103;-80
2022/04/16 16:14:48;;;;;;;3.67;2.67;;;;;;;8.91;100.00;103360.66;4911219;29;20383;-81
2022/04/16 16:17:14;;;;;;;3.67;2.83;;;;;;;9.04;100.00;103375.75;4920340;29;20070;-81
2022/04/16 16:19:39;;;;;;;5.13;3.03;;;;;;;8.89;100.00;103359.09;4914919;29;20036;-78
2022/04/16 16:22:05;;;;;;;7.32;3.28;;;;;;;8.96;100.00;103362.13;4906625;29;20052;-79
2022/04/16 16:24:31;;;;;;;3.97;3.10;;;;;;;8.93;100.00;103369.44;4903728;29;20021;-80
2022/04/16 16:26:56;;;;;;;4.75;2.97;;;;;;;8.91;100.00;103371.41;4906601;29;20446;-81
2022/04/16 16:29:21;;;;;;;5.43;3.28;;;;;;;8.87;100.00;103369.09;4908971;29;20080;-79
2022/04/16 16:31:47;;;;;;;4.75;3.10;;;;;;;8.82;100.00;103374.00;4908009;29;20036;-80
2022/04/16 16:34:14;;;;;;;5.93;3.40;;;;;;;7.20;100.00;103123.16;5027713;23;20048;-83
2022/04/16 16:36:40;;;;;;;4.72;3.20;;;;;;;7.72;100.00;103223.56;5483055;23;20036;-83
2022/04/16 16:39:05;;;;;;;3.97;2.97;;;;;;;7.12;100.00;103152.38;5024593;23;20080;-80
2022/04/16 16:41:32;;;;;;;3.42;3.00;;;;;;;8.44;100.00;103362.69;4899760;29;20064;-83
2022/04/16 16:43:59;;;;;;;4.13;3.05;;;;;;;7.66;100.00;103245.47;4888491;29;20033;-81
2022/04/16 16:46:27;;;;;;;7.28;3.20;;;;;;;8.45;100.00;103364.38;4884045;29;20040;-80
2022/04/16 16:48:52;;;;;;;4.60;3.00;;;;;;;8.43;100.00;103360.09;4882592;29;20036;-79
2022/04/16 16:51:19;;;;;;;5.53;3.13;;;;;;;8.23;100.00;103343.72;4880641;29;20032;-81
2022/04/16 16:53:44;;;;;;;5.10;3.05;;;;;;;8.32;100.00;103363.63;4882871;29;20033;-80
2022/04/16 16:56:10;;;;;;;4.47;3.60;;;;;;;8.14;100.00;103339.09;4885895;29;20036;-81
2022/04/16 16:58:35;;;;;;;3.78;3.22;;;;;;;8.18;100.00;103345.09;4893399;29;20112;-81
2022/04/16 17:01:02;;;;;;;7.60;3.33;;;;;;;8.04;100.00;103323.84;4888740;29;20460;-80
2022/04/16 17:06:11;;;;;;;5.18;3.35;;;;;;;8.08;100.00;103349.44;4876768;29;20076;-81
2022/04/16 17:08:37;;;;;;;6.32;3.53;;;;;;;8.12;100.00;103359.81;4858239;29;20417;-81
2022/04/16 17:11:03;;;;;;;4.18;3.47;;;;;;;8.08;100.00;103355.69;4880279;29;20035;-81
2022/04/16 17:13:28;;;;;;;4.60;3.40;;;;;;;7.98;100.00;103328.75;4886007;29;20115;-79
2022/04/16 17:18:41;;;;;;;5.70;3.72;;;;;;;8.01;100.00;103343.72;4882761;29;20067;-82
2022/04/16 17:21:07;;;;;;;7.45;4.32;;;;;;;7.97;100.00;103345.78;4875393;29;20064;-82
2022/04/16 17:23:33;;;;;;;5.30;4.18;;;;;;;7.88;100.00;103340.28;4886973;29;20104;-82
2022/04/16 17:25:58;;;;;;;7.70;4.63;;;;;;;7.76;100.00;103328.69;4881313;29;20033;-80
2022/04/16 17:28:24;;;;;;;7.20;4.40;;;;;;;7.79;100.00;103330.28;4878843;29;20734;-81
2022/04/16 17:30:50;;;;;;;6.22;4.85;;;;;;;7.81;100.00;103339.91;4883986;29;20044;-81
2022/04/16 17:33:16;;;;;;;6.30;4.70;;;;;;;7.62;100.00;103312.84;4868801;29;20029;-81
2022/04/16 17:35:41;;;;;;;6.63;4.55;;;;;;;7.59;100.00;103318.44;4883186;29;20052;-83
2022/04/16 17:38:08;;;;;;;7.80;4.63;;;;;;;7.77;100.00;103336.59;4884788;29;20057;-83
2022/04/16 17:48:19;;;;;;;6.30;4.82;;;;;;;7.76;100.00;103336.72;5577556;23;20052;-86
2022/04/16 17:50:46;;;;;;;8.50;5.22;;;;;;;6.93;100.00;103211.81;5662103;23;20083;-85
2022/04/16 17:58:22;;;;;;;8.13;4.72;;;;;;;6.85;100.00;103211.53;5479578;23;20097;-82
2022/04/16 18:00:48;;;;;;;6.90;4.75;;;;;;;6.07;100.00;103105.03;4936329;29;20101;-84
2022/04/16 18:03:14;;;;;;;8.00;4.70;;;;;;;6.15;100.00;103112.50;4913329;29;20036;-83
2022/04/16 18:05:40;;;;;;;7.97;4.63;;;;;;;6.41;100.00;103161.38;4930119;23;20124;-82
2022/04/16 18:08:06;;;;;;;7.63;4.35;;;;;;;6.87;100.00;103233.69;4899823;29;20077;-82
2022/04/16 18:10:32;;;;;;;5.32;4.43;;;;;;;6.55;100.00;103178.06;4901433;29;20041;-84
2022/04/16 18:12:57;;;;;;;7.60;4.47;;;;;;;5.97;100.00;103086.16;4899221;29;20025;-84
2022/04/16 18:15:24;;;;;;;6.53;4.28;;;;;;;5.86;100.00;103078.91;4912571;29;20029;-81
2022/04/16 18:17:50;;;;;;;8.43;4.45;;;;;;;6.51;100.00;103203.34;4913800;29;20108;-84
2022/04/16 18:23:18;;;;;;;8.45;4.88;;;;;;;6.09;100.00;103146.75;4932980;23;20041;-83
2022/04/16 18:25:43;;;;;;;10.48;5.13;;;;;;;6.65;100.00;103258.50;4938872;29;20096;-84
2022/04/16 18:28:09;;;;;;;7.72;5.00;;;;;;;6.34;100.00;103193.91;5262994;23;20100;-82
2022/04/16 18:30:34;;;;;;;10.45;5.97;;;;;;;5.72;100.00;103105.75;4917122;29;20036;-83
2022/04/16 18:33:02;;;;;;;8.80;5.45;;;;;;;5.80;100.00;103115.91;4919394;29;20073;-83
2022/04/16 18:35:28;;;;;;;12.13;6.05;;;;;;;6.09;100.00;103157.44;4930621;29;20029;-84
2022/04/16 18:37:54;;;;;;;7.88;5.25;;;;;;;6.16;100.00;103168.53;4921126;29;20028;-85
2022/04/16 18:40:20;;;;;;;9.75;5.78;;;;;;;5.95;100.00;103132.66;4926294;29;20019;-85
2022/04/16 18:42:46;;;;;;;8.05;5.40;;;;;;;5.96;100.00;103153.94;4903500;29;20005;-83
2022/04/16 18:50:22;;;;;;;11.32;6.28;;;;;;;6.02;100.00;103176.69;5630080;23;20048;-84
2022/04/16 18:52:47;;;;;;;8.30;5.75;;;;;;;6.49;100.00;103256.13;4924018;29;20110;-84
2022/04/16 18:55:14;;;;;;;9.80;5.95;;;;;;;5.57;100.00;103123.75;4976387;23;20100;-82
2022/04/16 18:57:40;;;;;;;9.65;6.00;;;;;;;5.86;100.00;103166.19;4897653;29;20025;-82
2022/04/16 19:00:10;;;;;;;15.45;6.82;;;;;;;6.50;100.00;103255.16;4887473;29;20021;-82
2022/04/16 19:08:04;;;;;;;9.15;6.38;;;;;;;6.92;100.00;103349.31;4922204;29;20027;-84
2022/04/16 19:10:29;;;;;;;11.40;6.35;;;;;;;6.89;100.00;103349.53;4903792;29;20121;-84
2022/04/16 19:12:55;;;;;;;7.97;6.22;;;;;;;6.80;100.00;103335.00;4893875;29;20033;-83
2022/04/16 19:15:21;;;;;;;10.63;5.90;;;;;;;6.82;100.00;103342.88;4895431;29;20041;-83
2022/04/16 19:17:46;;;;;;;12.60;5.97;;;;;;;6.73;100.00;103332.88;4902728;29;20088;-82
2022/04/16 19:20:13;;;;;;;7.75;5.95;;;;;;;6.68;100.00;103330.53;4907246;29;20107;-81
2022/04/16 19:22:39;;;;;;;9.50;6.05;;;;;;;6.69;100.00;103342.97;4900055;29;20051;-82
2022/04/16 19:25:05;;;;;;;10.07;6.13;;;;;;;6.57;100.00;103325.97;4889471;29;20454;-82
2022/04/16 19:27:30;;;;;;;9.82;6.50;;;;;;;6.65;100.00;103335.25;4895454;29;20041;-82
2022/04/16 19:29:56;;;;;;;14.85;8.07;;;;;;;6.59;100.00;103333.88;4889783;29;20068;-81
2022/04/16 19:32:21;;;;;;;18.40;10.63;;;;;;;6.54;100.00;103326.19;4878862;29;20044;-77
2022/04/16 19:34:46;;;;;;;16.58;10.82;;;;;;;6.52;100.00;103330.81;4891616;29;20056;-82
2022/04/16 19:37:11;;;;;;;14.50;9.30;;;;;;;6.39;100.00;103313.03;4894337;29;20053;-82
2022/04/16 19:39:37;;;;;;;12.57;8.35;;;;;;;6.34;100.00;103313.38;4888640;29;20048;-82
2022/04/16 19:42:03;;;;;;;13.00;6.25;;;;;;;6.40;100.00;103331.66;4883449;29;20064;-80
2022/04/16 19:44:29;;;;;;;11.10;5.07;;;;;;;6.38;100.00;103333.59;4883038;29;20057;-82
2022/04/16 19:46:56;;;;;;;7.95;4.93;;;;;;;6.25;100.00;103306.00;4903111;29;20456;-82
2022/04/16 19:49:21;;;;;;;7.57;4.80;;;;;;;6.25;100.00;103306.88;4888660;29;20040;-82
2022/04/16 19:51:47;;;;;;;7.03;4.30;;;;;;;6.37;100.00;103326.53;4918255;29;20056;-81
2022/04/16 19:54:14;;;;;;;6.93;4.20;;;;;;;6.44;100.00;103327.81;4903122;29;20061;-81
2022/04/16 19:56:40;;;;;;;6.00;3.80;;;;;;;6.34;100.00;103308.88;4888046;29;20061;-81
2022/04/16 19:59:06;;;;;;;6.28;3.80;;;;;;;6.45;100.00;103324.16;4891113;29;20029;-82
2022/04/16 20:01:31;;;;;;;7.07;3.40;;;;;;;6.25;100.00;103285.47;4886981;29;20477;-80
2022/04/16 20:03:57;;;;;;;6.90;4.50;;;;;;;5.57;100.00;103161.13;5204668;23;20060;-81
2022/04/16 20:06:23;;;;;;;7.95;4.60;;;;;;;6.61;100.00;103323.06;4910740;29;20035;-79
2022/04/16 20:11:32;;;;;;;6.10;4.32;;;;;;;6.58;100.00;103298.22;4905127;29;20047;-81
2022/04/16 20:13:58;;;;;;;6.90;4.60;;;;;;;6.67;100.00;103310.09;4893697;29;20036;-82
2022/04/16 20:16:25;;;;;;;6.20;4.53;;;;;;;6.66;100.00;103302.19;4921770;29;20025;-83
2022/04/16 20:18:51;;;;;;;8.10;4.95;;;;;;;6.68;100.00;103297.56;4914036;29;20021;-79
2022/04/16 20:21:16;;;;;;;6.50;4.43;;;;;;;6.50;100.00;103268.53;4911377;29;20090;-82
2022/04/16 20:23:44;;;;;;;6.38;4.72;;;;;;;6.66;100.00;103294.16;4916312;29;20024;-82
2022/04/16 20:26:10;;;;;;;25.73;13.65;;;;;;;6.54;100.00;103280.69;4904983;29;20034;-82
2022/04/16 20:28:35;;;;;;;36.40;21.48;;;;;;;6.58;100.00;103294.72;4910868;29;20028;-82
2022/04/16 20:31:01;;;;;;;46.70;25.35;;;;;;;6.53;100.00;103292.38;4911441;29;20123;-81
2022/04/16 20:33:27;;;;;;;45.03;25.52;;;;;;;6.48;100.00;103291.84;4887508;29;20044;-82
2022/04/16 20:35:57;;;;;;;40.80;23.63;;;;;;;6.36;100.00;103274.03;4903795;29;20417;-81
2022/04/16 20:38:22;;;;;;;37.00;21.77;;;;;;;6.33;100.00;103261.72;4902990;29;20036;-81
2022/04/16 20:46:17;;;;;;;12.82;8.18;;;;;;;6.13;100.00;103261.47;4904431;29;20092;-81
2022/04/16 20:48:42;;;;;;;10.52;6.82;;;;;;;6.20;100.00;103271.59;4904779;29;20044;-81
2022/04/16 20:53:55;;;;;;;9.13;6.18;;;;;;;6.09;100.00;103264.34;4903422;29;20047;-82
2022/04/16 20:56:21;;;;;;;8.27;5.47;;;;;;;6.04;100.00;103258.47;4911710;29;20044;-81
2022/04/16 20:58:49;;;;;;;9.25;5.78;;;;;;;6.03;100.00;103261.25;4914126;29;20025;-80
2022/04/16 21:01:14;;;;;;;7.97;5.28;;;;;;;5.94;100.00;103244.06;4914359;29;20115;-81
2022/04/16 21:03:41;;;;;;;12.40;5.18;;;;;;;6.00;100.00;103248.13;4898666;29;20036;-82
2022/04/16 21:06:06;;;;;;;8.13;5.10;;;;;;;5.95;100.00;103261.78;4911206;29;20017;-82
2022/04/16 21:08:32;;;;;;;10.40;5.15;;;;;;;5.36;100.00;103160.84;4916068;29;20037;-81
2022/04/16 21:10:58;;;;;;;9.60;4.47;;;;;;;5.85;100.00;103250.84;4902932;29;20020;-81
2022/04/16 21:13:23;;;;;;;5.97;4.45;;;;;;;5.86;100.00;103243.69;4901419;29;20032;-81
2022/04/16 21:15:49;;;;;;;8.45;4.47;;;;;;;5.78;100.00;103240.72;4902944;29;20044;-80
2022/04/16 21:18:16;;;;;;;6.60;4.05;;;;;;;5.80;100.00;103244.16;4902635;29;20083;-81
2022/04/16 21:20:42;;;;;;;6.57;4.38;;;;;;;5.75;100.00;103243.59;4897878;29;20450;-78
2022/04/16 21:23:07;;;;;;;5.97;4.05;;;;;;;5.57;100.00;103216.38;4881806;29;20050;-80
2022/04/16 21:25:33;;;;;;;5.80;4.28;;;;;;;5.69;100.00;103236.00;4899677;29;20516;-80
2022/04/16 21:27:59;;;;;;;7.28;4.28;;;;;;;5.59;100.00;103223.28;4898817;29;20033;-80
2022/04/16 21:30:25;;;;;;;6.28;4.30;;;;;;;5.58;100.00;103226.94;4898735;29;20099;-81
2022/04/16 21:32:50;;;;;;;5.68;3.72;;;;;;;5.61;100.00;103231.22;4913378;29;20458;-80
2022/04/16 21:35:16;;;;;;;5.60;3.67;;;;;;;5.56;100.00;103226.22;4917060;29;20343;-80
2022/04/16 21:37:41;;;;;;;8.43;3.60;;;;;;;5.64;100.00;103231.00;4903605;29;20048;-80
2022/04/16 21:40:07;;;;;;;5.85;3.70;;;;;;;5.50;100.00;103215.09;4899801;29;20036;-81
2022/04/16 21:42:34;;;;;;;7.50;3.50;;;;;;;5.59;100.00;103227.78;4903672;29;20060;-81
2022/04/16 21:45:00;;;;;;;8.02;3.67;;;;;;;5.57;100.00;103235.91;4898833;29;20104;-80
2022/04/16 21:47:26;;;;;;;7.93;3.83;;;;;;;5.54;100.00;103236.13;4897053;29;20107;-80
2022/04/16 21:49:51;;;;;;;4.45;2.95;;;;;;;5.53;100.00;103244.22;4897014;29;20044;-80
2022/04/16 21:52:19;;;;;;;6.40;2.92;;;;;;;5.51;100.00;103241.69;4896897;29;20071;-80
2022/04/16 21:54:45;;;;;;;7.25;3.83;;;;;;;5.46;100.00;103243.81;4893526;29;20021;-81
2022/04/16 21:57:10;;;;;;;6.60;4.47;;;;;;;5.48;100.00;103238.38;4904033;29;20044;-81
2022/04/16 21:59:36;;;;;;;16.08;9.00;;;;;;;5.36;100.00;103232.94;4878745;29;20467;-80
2022/04/16 22:02:01;;;;;;;9.95;5.82;;;;;;;5.40;100.00;103244.25;4878392;29;20040;-80
2022/04/16 22:04:27;;;;;;;10.50;5.43;;;;;;;5.24;100.00;103223.09;4896259;29;20048;-80
2022/04/16 22:06:55;;;;;;;6.63;3.80;;;;;;;5.30;100.00;103221.81;4898298;29;20029;-81
2022/04/16 22:09:21;;;;;;;9.73;4.13;;;;;;;5.31;100.00;103236.88;4917987;29;20047;-80
2022/04/16 22:11:48;;;;;;;12.70;4.50;;;;;;;5.23;100.00;103226.72;4912810;29;20035;-80
2022/04/16 22:14:14;;;;;;;11.73;6.35;;;;;;;5.26;100.00;103222.97;4903126;29;20051;-80
2022/04/16 22:16:40;;;;;;;7.95;4.38;;;;;;;5.23;100.00;103228.50;4900554;29;20028;-80
2022/04/16 22:19:05;;;;;;;8.32;3.78;;;;;;;5.19;100.00;103218.03;4903344;29;20366;-80
2022/04/16 22:21:31;;;;;;;8.05;3.95;;;;;;;5.03;100.00;103198.69;4902966;29;20133;-81
2022/04/16 22:23:57;;;;;;;10.25;4.97;;;;;;;5.16;100.00;103230.72;4908641;29;20024;-80
2022/04/16 22:26:23;;;;;;;28.05;16.33;;;;;;;5.08;100.00;103212.59;4905520;29;20021;-80
2022/04/16 22:28:49;;;;;;;22.98;14.00;;;;;;;5.00;100.00;103198.03;4901945;29;20103;-80
2022/04/16 22:31:16;;;;;;;24.38;13.70;;;;;;;5.09;100.00;103222.28;4916566;29;20429;-80
2022/04/16 22:33:43;;;;;;;41.17;22.40;;;;;;;5.07;100.00;103224.22;4922594;29;20469;-80
2022/04/16 22:36:09;;;;;;;64.32;33.95;;;;;;;4.99;100.00;103215.00;4890926;29;20029;-81
2022/04/16 22:41:20;;;;;;;26.52;15.13;;;;;;;5.00;100.00;103225.59;4900435;29;20039;-80
2022/04/16 22:43:45;;;;;;;31.67;17.88;;;;;;;4.98;100.00;103216.00;4901227;29;20414;-81
2022/04/16 22:46:11;;;;;;;35.75;19.67;;;;;;;4.97;100.00;103217.81;4900517;29;20107;-80
2022/04/16 22:48:39;;;;;;;32.13;19.40;;;;;;;4.89;100.00;103212.09;4898583;29;20029;-80
2022/04/16 22:51:05;;;;;;;47.75;25.92;;;;;;;4.92;100.00;103217.25;4901364;29;20084;-80
2022/04/16 22:53:31;;;;;;;58.45;32.95;;;;;;;4.90;100.00;103224.47;4898931;29;20024;-80
2022/04/16 22:56:02;;;;;;;44.47;27.05;;;;;;;4.87;100.00;103214.03;4900484;29;20035;-80
2022/04/16 22:58:27;;;;;;;36.63;20.17;;;;;;;4.84;100.00;103215.09;4885316;29;20036;-80
2022/04/16 23:00:57;;;;;;;21.80;11.43;;;;;;;4.81;100.00;103223.31;4900448;29;20701;-81
2022/04/16 23:03:23;;;;;;;19.25;10.32;;;;;;;4.71;100.00;103203.53;4901215;29;20048;-80
2022/04/16 23:05:53;;;;;;;22.40;7.20;;;;;;;4.76;100.00;103214.75;4900270;29;20064;-80
2022/04/16 23:08:18;;;;;;;15.30;7.40;;;;;;;4.71;100.00;103207.06;4900698;29;20025;-80
2022/04/16 23:10:46;;;;;;;16.73;7.78;;;;;;;4.76;100.00;103213.88;4900909;29;20043;-80
2022/04/16 23:13:12;;;;;;;24.63;12.07;;;;;;;4.71;100.00;103206.19;4900635;29;20047;-80
2022/04/16 23:18:24;;;;;;;10.85;4.32;;;;;;;4.61;100.00;103203.28;4898817;29;20039;-80
2022/04/16 23:20:51;;;;;;;11.25;4.32;;;;;;;4.62;100.00;103197.00;4901663;29;20378;-80
2022/04/16 23:23:17;;;;;;;13.18;4.07;;;;;;;4.67;100.00;103213.56;4898073;29;20129;-80
2022/04/16 23:25:43;;;;;;;11.05;5.28;;;;;;;4.66;100.00;103210.97;4900310;29;20052;-80
2022/04/16 23:28:09;;;;;;;14.68;6.40;;;;;;;4.66;100.00;103210.97;4884924;29;20403;-79
2022/04/16 23:30:40;;;;;;;15.75;5.53;;;;;;;4.64;100.00;103196.91;4901075;29;20024;-80
2022/04/16 23:33:06;;;;;;;17.92;7.15;;;;;;;4.33;100.00;103152.72;4898125;29;20040;-80
2022/04/16 23:35:32;;;;;;;19.45;7.43;;;;;;;4.58;100.00;103195.50;4900204;29;20398;-79
2022/04/16 23:37:57;;;;;;;20.30;6.70;;;;;;;4.58;100.00;103194.63;4898929;29;20044;-80
2022/04/16 23:40:24;;;;;;;14.43;5.65;;;;;;;4.54;100.00;103185.13;4898783;29;20424;-80
2022/04/16 23:42:49;;;;;;;11.40;3.95;;;;;;;4.42;100.00;103165.47;4898190;29;20107;-80
2022/04/16 23:47:58;;;;;;;13.55;5.28;;;;;;;4.52;100.00;103182.56;4899480;29;20035;-80
2022/04/16 23:50:24;;;;;;;15.52;4.85;;;;;;;4.47;100.00;103179.34;4901001;29;20370;-80
2022/04/16 23:52:49;;;;;;;14.48;5.30;;;;;;;4.47;100.00;103180.22;4882341;29;20084;-80
2022/04/16 23:55:16;;;;;;;10.40;3.50;;;;;;;4.35;100.00;103162.34;4884808;29;20029;-80
2022/04/16 23:57:42;;;;;;;8.35;2.95;;;;;;;4.42;100.00;103181.44;4899601;29;20028;-80
